Time;durP1;ratioP1;P1;durP2;ratioP2;P2;SDS_P1;SDS_P2;PMS_P1;PMS_P2;Temp;Humidity;BMP_temperature;BMP_pressure;BME280_temperature;BME280_humidity;BME280_pressure;Samples;Min_cycle;Max_cycle;Signal;HPM_P1;HPM_P2
2023/03/14 00:00:39;;;;;;;19.30;5.43;;;;;;;;;;5066948;28;20420;-83
2023/03/14 00:03:06;;;;;;;16.60;4.85;;;;;;;;;;5062493;28;20408;-83
2023/03/14 00:05:34;;;;;;;18.05;4.80;;;;;;;;;;5067303;28;20483;-83
2023/03/14 00:08:00;;;;;;;18.00;5.47;;;;;;;;;;5064137;28;20419;-82
2023/03/14 00:10:27;;;;;;;23.13;5.65;;;;;;;;;;5067833;28;20435;-81
2023/03/14 00:12:53;;;;;;;19.30;5.43;;;;;;;;;;5062640;28;20431;-82
2023/03/14 00:15:20;;;;;;;16.77;4.82;;;;;;;;;;5061777;28;20947;-82
2023/03/14 00:17:46;;;;;;;16.42;4.78;;;;;;;;;;5066313;28;20420;-82
2023/03/14 00:20:13;;;;;;;17.63;5.20;;;;;;;;;;5065093;28;20423;-82
2023/03/14 00:22:41;;;;;;;15.67;5.40;;;;;;;;;;5066343;28;20416;-82
2023/03/14 00:25:09;;;;;;;25.20;6.90;;;;;;;;;;5066720;28;20428;-81
2023/03/14 00:27:36;;;;;;;15.80;5.00;;;;;;;;;;5065017;28;20795;-83
2023/03/14 00:30:02;;;;;;;17.27;4.13;;;;;;;;;;5065495;28;20435;-82
2023/03/14 00:32:29;;;;;;;13.43;5.22;;;;;;;;;;5063803;28;20413;-84
2023/03/14 00:34:55;;;;;;;13.57;4.65;;;;;;;;;;5065489;28;20435;-83
2023/03/14 00:37:22;;;;;;;19.67;4.60;;;;;;;;;;5064030;28;20420;-84
2023/03/14 00:39:51;;;;;;;15.77;4.10;;;;;;;;;;5064750;28;20431;-83
2023/03/14 00:42:18;;;;;;;14.57;4.78;;;;;;;;;;5063558;28;20431;-83
2023/03/14 00:44:44;;;;;;;11.95;4.53;;;;;;;;;;5067069;28;20434;-84
2023/03/14 00:47:10;;;;;;;14.35;4.80;;;;;;;;;;5064458;28;20422;-83
2023/03/14 00:49:37;;;;;;;12.10;4.33;;;;;;;;;;5060131;28;20436;-83
2023/03/14 00:52:04;;;;;;;14.13;5.03;;;;;;;;;;5062489;28;20435;-84
2023/03/14 00:54:30;;;;;;;16.10;4.25;;;;;;;;;;5066408;28;20431;-83
2023/03/14 00:56:58;;;;;;;12.88;4.25;;;;;;;;;;5061943;28;20415;-83
2023/03/14 00:59:24;;;;;;;14.57;4.20;;;;;;;;;;5060756;28;20420;-83
2023/03/14 01:01:50;;;;;;;10.02;3.90;;;;;;;;;;5065086;28;20413;-84
2023/03/14 01:04:17;;;;;;;10.30;4.20;;;;;;;;;;5067111;28;20411;-83
2023/03/14 01:06:43;;;;;;;12.05;4.35;;;;;;;;;;5064945;28;20421;-84
2023/03/14 01:09:10;;;;;;;9.43;4.25;;;;;;;;;;5065479;28;20430;-83
2023/03/14 01:11:37;;;;;;;8.68;4.40;;;;;;;;;;5065291;28;20433;-83
2023/03/14 01:14:05;;;;;;;11.38;4.20;;;;;;;;;;5068345;28;20423;-84
2023/03/14 01:16:33;;;;;;;15.07;5.00;;;;;;;;;;5065472;28;20468;-84
2023/03/14 01:18:59;;;;;;;8.85;4.35;;;;;;;;;;5065072;28;20415;-83
2023/03/14 01:21:27;;;;;;;11.77;4.90;;;;;;;;;;5068591;28;20456;-83
2023/03/14 01:23:54;;;;;;;8.55;4.15;;;;;;;;;;5066898;28;20502;-84
2023/03/14 01:26:22;;;;;;;12.80;5.07;;;;;;;;;;5066787;28;20512;-84
2023/03/14 01:28:49;;;;;;;10.52;4.85;;;;;;;;;;5066750;28;20770;-84
2023/03/14 01:31:17;;;;;;;10.63;4.72;;;;;;;;;;5069714;28;20435;-84
2023/03/14 01:33:43;;;;;;;10.15;4.80;;;;;;;;;;5066443;28;20415;-82
2023/03/14 01:36:10;;;;;;;8.63;4.57;;;;;;;;;;5068571;28;20428;-82
2023/03/14 01:38:37;;;;;;;11.93;5.50;;;;;;;;;;5065101;28;20416;-82
2023/03/14 01:41:04;;;;;;;9.35;5.30;;;;;;;;;;5066262;28;20941;-82
2023/03/14 01:43:30;;;;;;;10.25;5.75;;;;;;;;;;5070578;28;20422;-82
2023/03/14 01:46:21;;;;;;;10.50;5.78;;;;;;;;;;5067114;28;20437;-82
2023/03/14 01:48:52;;;;;;;12.98;6.13;;;;;;;;;;5068409;28;20916;-83
2023/03/14 01:51:20;;;;;;;14.18;6.35;;;;;;;;;;5067139;28;20419;-83
2023/03/14 01:53:48;;;;;;;10.18;6.07;;;;;;;;;;5068921;28;20423;-82
2023/03/14 01:56:16;;;;;;;10.63;6.40;;;;;;;;;;5068225;28;20423;-82
2023/03/14 01:58:44;;;;;;;8.85;6.20;;;;;;;;;;5065726;28;20437;-83
2023/03/14 02:01:11;;;;;;;12.23;6.80;;;;;;;;;;5067815;28;21014;-83
2023/03/14 02:03:39;;;;;;;14.20;6.80;;;;;;;;;;5065297;28;20427;-83
2023/03/14 02:06:08;;;;;;;11.98;6.00;;;;;;;;;;5061832;28;20423;-82
2023/03/14 02:08:36;;;;;;;10.63;6.15;;;;;;;;;;5061699;28;20423;-83
2023/03/14 02:11:02;;;;;;;10.05;5.95;;;;;;;;;;5057447;28;20433;-82
2023/03/14 02:13:29;;;;;;;9.82;6.18;;;;;;;;;;5064706;28;20428;-82
2023/03/14 02:15:55;;;;;;;14.68;6.65;;;;;;;;;;5066761;28;20428;-83
2023/03/14 02:18:21;;;;;;;12.13;6.78;;;;;;;;;;5044642;28;20808;-82
2023/03/14 02:20:52;;;;;;;13.80;6.20;;;;;;;;;;5042151;28;20413;-82
2023/03/14 02:23:24;;;;;;;8.52;5.72;;;;;;;;;;5055788;28;20408;-83
2023/03/14 02:25:53;;;;;;;14.15;6.53;;;;;;;;;;5061703;28;20430;-82
2023/03/14 02:28:21;;;;;;;10.70;6.18;;;;;;;;;;5057425;28;21007;-83
2023/03/14 02:30:48;;;;;;;11.45;5.40;;;;;;;;;;5059442;28;20427;-82
2023/03/14 02:33:15;;;;;;;13.90;6.00;;;;;;;;;;5060818;28;21144;-83
2023/03/14 02:35:43;;;;;;;8.73;5.82;;;;;;;;;;5061099;28;20435;-83
2023/03/14 02:38:14;;;;;;;10.52;5.50;;;;;;;;;;5064364;28;20414;-82
2023/03/14 02:40:41;;;;;;;11.45;6.22;;;;;;;;;;5062277;28;20420;-83
2023/03/14 02:43:08;;;;;;;11.57;5.63;;;;;;;;;;5063342;28;20403;-82
2023/03/14 02:45:40;;;;;;;9.00;5.72;;;;;;;;;;5061316;28;20424;-82
2023/03/14 02:48:08;;;;;;;12.80;5.65;;;;;;;;;;5059490;28;20412;-82
2023/03/14 02:50:35;;;;;;;8.68;5.10;;;;;;;;;;5059869;28;20433;-82
2023/03/14 02:53:01;;;;;;;11.10;5.20;;;;;;;;;;5061809;28;20421;-82
2023/03/14 02:55:28;;;;;;;11.45;5.53;;;;;;;;;;5061408;28;20774;-82
2023/03/14 02:57:54;;;;;;;11.85;4.72;;;;;;;;;;5062780;28;20517;-84
2023/03/14 03:00:21;;;;;;;13.60;5.00;;;;;;;;;;5063668;28;20427;-83
2023/03/14 03:02:49;;;;;;;15.88;6.28;;;;;;;;;;5061090;28;20456;-83
2023/03/14 03:05:15;;;;;;;13.52;6.30;;;;;;;;;;5062243;28;20423;-84
2023/03/14 03:07:42;;;;;;;10.50;6.07;;;;;;;;;;5061996;28;20419;-83
2023/03/14 03:10:09;;;;;;;15.20;6.37;;;;;;;;;;5062204;28;20428;-84
2023/03/14 03:12:35;;;;;;;14.98;6.10;;;;;;;;;;5059314;28;20420;-82
2023/03/14 03:15:02;;;;;;;15.98;6.20;;;;;;;;;;5061185;28;20450;-82
2023/03/14 03:17:28;;;;;;;14.07;6.55;;;;;;;;;;5059703;28;20504;-83
2023/03/14 03:19:56;;;;;;;14.45;6.82;;;;;;;;;;5061025;28;20422;-84
2023/03/14 03:22:23;;;;;;;8.80;6.10;;;;;;;;;;5064905;28;20434;-84
2023/03/14 03:24:49;;;;;;;13.53;6.27;;;;;;;;;;5068213;28;20484;-82
2023/03/14 03:27:16;;;;;;;11.93;5.93;;;;;;;;;;5066326;28;20421;-82
2023/03/14 03:29:42;;;;;;;13.43;6.30;;;;;;;;;;5066768;28;20472;-82
2023/03/14 03:32:10;;;;;;;14.82;5.40;;;;;;;;;;5067448;28;20423;-82
2023/03/14 03:34:36;;;;;;;8.93;3.90;;;;;;;;;;5067456;28;20438;-82
2023/03/14 03:37:04;;;;;;;6.10;2.85;;;;;;;;;;5066339;28;20789;-83
2023/03/14 03:39:30;;;;;;;6.50;2.60;;;;;;;;;;5069226;28;20432;-82
2023/03/14 03:41:57;;;;;;;7.20;2.22;;;;;;;;;;5061990;28;20785;-83
2023/03/14 03:44:23;;;;;;;4.28;1.70;;;;;;;;;;5047763;28;20483;-82
2023/03/14 03:46:50;;;;;;;5.40;1.92;;;;;;;;;;5066010;28;20419;-83
2023/03/14 03:49:16;;;;;;;6.45;1.90;;;;;;;;;;5066097;28;20428;-82
2023/03/14 03:51:42;;;;;;;7.40;1.80;;;;;;;;;;5066621;28;20417;-82
2023/03/14 03:54:10;;;;;;;5.35;1.70;;;;;;;;;;5064894;28;20432;-82
2023/03/14 03:56:36;;;;;;;6.63;1.70;;;;;;;;;;5059989;28;20423;-81
2023/03/14 03:59:03;;;;;;;8.40;2.20;;;;;;;;;;5067615;28;20804;-81
2023/03/14 04:01:30;;;;;;;10.30;2.90;;;;;;;;;;5064282;28;20440;-82
2023/03/14 04:03:56;;;;;;;5.95;2.50;;;;;;;;;;5064698;28;20473;-82
2023/03/14 04:06:22;;;;;;;6.70;2.90;;;;;;;;;;5061262;28;20405;-83
2023/03/14 04:08:49;;;;;;;6.15;2.80;;;;;;;;;;5065146;28;20422;-82
2023/03/14 04:11:17;;;;;;;8.00;3.22;;;;;;;;;;5063464;28;20421;-82
2023/03/14 04:13:43;;;;;;;7.57;3.30;;;;;;;;;;5061802;28;20427;-82
2023/03/14 04:16:14;;;;;;;6.75;3.10;;;;;;;;;;5065295;28;20435;-82
2023/03/14 04:18:40;;;;;;;7.53;3.38;;;;;;;;;;5069822;28;20924;-82
2023/03/14 04:21:07;;;;;;;10.60;3.83;;;;;;;;;;5065518;28;20934;-82
2023/03/14 04:23:33;;;;;;;7.00;3.08;;;;;;;;;;5063301;28;20454;-82
2023/03/14 04:26:00;;;;;;;6.28;3.30;;;;;;;;;;5068055;28;20750;-82
2023/03/14 04:28:28;;;;;;;7.93;3.70;;;;;;;;;;5062707;28;20415;-82
2023/03/14 04:30:54;;;;;;;10.90;3.88;;;;;;;;;;5067631;28;20517;-82
2023/03/14 04:33:20;;;;;;;9.57;3.90;;;;;;;;;;5064731;28;20788;-82
2023/03/14 04:35:47;;;;;;;8.30;4.10;;;;;;;;;;5066062;28;20935;-82
2023/03/14 04:38:13;;;;;;;4.50;3.38;;;;;;;;;;5067702;28;20425;-82
2023/03/14 04:40:40;;;;;;;12.15;4.28;;;;;;;;;;5061320;28;20421;-82
2023/03/14 04:43:07;;;;;;;7.27;4.10;;;;;;;;;;5064515;28;20500;-82
2023/03/14 04:45:34;;;;;;;8.02;3.95;;;;;;;;;;5064916;28;20454;-81
2023/03/14 04:48:01;;;;;;;7.47;4.05;;;;;;;;;;5066164;28;20427;-81
2023/03/14 04:50:27;;;;;;;8.80;4.50;;;;;;;;;;5063259;28;20411;-82
2023/03/14 04:52:54;;;;;;;9.43;4.07;;;;;;;;;;5062668;28;20974;-82
2023/03/14 04:55:20;;;;;;;7.22;3.70;;;;;;;;;;5066411;28;20415;-82
2023/03/14 04:57:46;;;;;;;8.63;3.63;;;;;;;;;;5067010;28;20481;-82
2023/03/14 05:00:13;;;;;;;8.95;3.40;;;;;;;;;;5068580;28;20434;-81
2023/03/14 05:02:41;;;;;;;7.93;3.65;;;;;;;;;;5064859;28;20428;-82
2023/03/14 05:05:07;;;;;;;5.47;3.50;;;;;;;;;;5065218;28;20435;-81
2023/03/14 05:07:34;;;;;;;6.77;3.40;;;;;;;;;;5063430;28;20415;-81
2023/03/14 05:10:00;;;;;;;8.50;3.90;;;;;;;;;;5061522;28;20421;-81
2023/03/14 05:12:26;;;;;;;8.27;3.87;;;;;;;;;;5066023;28;20424;-84
2023/03/14 05:14:53;;;;;;;7.38;4.07;;;;;;;;;;5060634;28;20433;-81
2023/03/14 05:17:19;;;;;;;7.75;4.25;;;;;;;;;;5060891;28;20426;-82
2023/03/14 05:19:47;;;;;;;11.88;3.70;;;;;;;;;;5064995;28;20431;-81
2023/03/14 05:22:14;;;;;;;11.23;3.95;;;;;;;;;;5065654;28;20914;-82
2023/03/14 05:24:40;;;;;;;5.75;3.22;;;;;;;;;;5066338;28;20457;-82
2023/03/14 05:27:07;;;;;;;8.53;3.63;;;;;;;;;;5065529;28;20969;-82
2023/03/14 05:29:33;;;;;;;8.90;3.95;;;;;;;;;;5061967;28;20444;-81
2023/03/14 05:32:00;;;;;;;7.70;3.85;;;;;;;;;;5064512;28;20434;-82
2023/03/14 05:34:26;;;;;;;9.70;3.97;;;;;;;;;;5047657;28;20421;-81
2023/03/14 05:36:55;;;;;;;6.70;3.97;;;;;;;;;;5064450;28;20403;-82
2023/03/14 05:39:22;;;;;;;10.35;3.72;;;;;;;;;;5062402;28;20442;-82
2023/03/14 05:41:48;;;;;;;7.80;3.30;;;;;;;;;;5062965;28;20427;-83
2023/03/14 05:44:15;;;;;;;11.77;3.90;;;;;;;;;;5062634;28;20421;-83
2023/03/14 05:46:41;;;;;;;9.82;3.70;;;;;;;;;;5063461;28;20433;-84
2023/03/14 05:49:07;;;;;;;10.65;3.53;;;;;;;;;;5069625;28;20429;-84
2023/03/14 05:51:34;;;;;;;10.75;4.00;;;;;;;;;;5064594;28;20424;-83
2023/03/14 05:54:01;;;;;;;6.30;3.20;;;;;;;;;;5061917;28;20839;-83
2023/03/14 05:56:28;;;;;;;9.70;3.65;;;;;;;;;;5066284;28;20440;-84
2023/03/14 05:58:54;;;;;;;6.88;3.40;;;;;;;;;;5061313;28;21008;-84
2023/03/14 06:01:21;;;;;;;12.13;3.97;;;;;;;;;;5064475;28;20456;-84
2023/03/14 06:03:47;;;;;;;7.72;3.20;;;;;;;;;;5065247;28;20427;-83
2023/03/14 06:06:13;;;;;;;8.88;3.30;;;;;;;;;;5066414;28;20432;-82
2023/03/14 06:08:40;;;;;;;8.38;3.58;;;;;;;;;;5063073;28;20504;-83
2023/03/14 06:11:09;;;;;;;9.15;3.70;;;;;;;;;;5064375;28;20472;-84
2023/03/14 06:13:35;;;;;;;5.53;2.65;;;;;;;;;;5061460;28;20430;-82
2023/03/14 06:16:01;;;;;;;8.98;3.30;;;;;;;;;;5047194;28;20473;-82
2023/03/14 06:18:28;;;;;;;8.77;3.10;;;;;;;;;;5061092;28;20420;-82
2023/03/14 06:20:55;;;;;;;7.33;3.20;;;;;;;;;;5063517;28;20440;-82
2023/03/14 06:23:21;;;;;;;5.18;2.83;;;;;;;;;;5066989;28;20499;-84
2023/03/14 06:25:48;;;;;;;4.93;3.22;;;;;;;;;;5066067;28;20436;-82
2023/03/14 06:28:16;;;;;;;5.60;2.72;;;;;;;;;;5061368;28;20444;-83
2023/03/14 06:30:42;;;;;;;8.75;3.10;;;;;;;;;;5061659;28;20444;-84
2023/03/14 06:33:08;;;;;;;8.33;3.40;;;;;;;;;;5064340;28;20429;-81
2023/03/14 06:35:35;;;;;;;10.48;3.13;;;;;;;;;;5064145;28;20429;-81
2023/03/14 06:38:01;;;;;;;6.53;3.30;;;;;;;;;;5060653;28;20924;-84
2023/03/14 06:40:27;;;;;;;8.50;3.40;;;;;;;;;;5065386;28;20419;-81
2023/03/14 06:42:54;;;;;;;10.10;3.58;;;;;;;;;;5064403;28;20436;-84
2023/03/14 06:45:21;;;;;;;6.22;3.17;;;;;;;;;;5066029;28;20429;-81
2023/03/14 06:47:48;;;;;;;8.00;3.20;;;;;;;;;;5062542;28;20409;-81
2023/03/14 06:50:14;;;;;;;9.57;3.50;;;;;;;;;;5062443;28;20429;-81
2023/03/14 06:52:45;;;;;;;7.63;2.70;;;;;;;;;;5065525;28;20427;-84
2023/03/14 06:55:12;;;;;;;5.68;2.80;;;;;;;;;;5064438;28;20437;-81
2023/03/14 06:57:38;;;;;;;7.43;2.80;;;;;;;;;;5071334;28;20419;-79
2023/03/14 07:00:05;;;;;;;6.78;2.85;;;;;;;;;;5067002;28;20925;-82
2023/03/14 07:02:33;;;;;;;4.32;2.30;;;;;;;;;;5066474;28;20795;-82
2023/03/14 07:05:00;;;;;;;8.50;3.33;;;;;;;;;;5065692;28;20427;-82
2023/03/14 07:07:26;;;;;;;6.07;3.05;;;;;;;;;;5070595;28;20473;-82
2023/03/14 07:09:53;;;;;;;9.65;3.20;;;;;;;;;;5067418;28;20423;-82
2023/03/14 07:12:19;;;;;;;8.97;3.70;;;;;;;;;;5066397;28;20429;-83
2023/03/14 07:14:45;;;;;;;10.50;3.00;;;;;;;;;;5065139;28;20423;-82
2023/03/14 07:17:13;;;;;;;9.73;3.17;;;;;;;;;;5064561;28;20572;-83
2023/03/14 07:19:41;;;;;;;9.47;3.23;;;;;;;;;;5068042;28;20417;-82
2023/03/14 07:22:07;;;;;;;7.65;2.72;;;;;;;;;;5069070;28;20426;-82
2023/03/14 07:24:34;;;;;;;9.00;3.15;;;;;;;;;;5070518;28;20436;-82
2023/03/14 07:27:00;;;;;;;9.20;3.30;;;;;;;;;;5068916;28;20426;-81
2023/03/14 07:29:26;;;;;;;7.80;3.03;;;;;;;;;;5066251;28;20431;-81
2023/03/14 07:31:53;;;;;;;7.47;3.00;;;;;;;;;;5065381;28;20496;-81
2023/03/14 07:34:20;;;;;;;9.80;2.95;;;;;;;;;;5066510;28;20434;-81
2023/03/14 07:36:48;;;;;;;5.70;2.83;;;;;;;;;;5066080;28;20454;-81
2023/03/14 07:39:14;;;;;;;7.50;3.05;;;;;;;;;;5065269;28;20429;-81
2023/03/14 07:41:41;;;;;;;9.00;3.40;;;;;;;;;;5062038;28;20434;-81
2023/03/14 07:44:07;;;;;;;7.28;3.20;;;;;;;;;;5065770;28;20423;-81
2023/03/14 07:46:33;;;;;;;6.15;2.80;;;;;;;;;;5067925;28;20424;-81
2023/03/14 07:49:00;;;;;;;7.45;2.92;;;;;;;;;;5067811;28;20435;-81
2023/03/14 07:51:26;;;;;;;9.38;2.95;;;;;;;;;;5063886;28;20431;-82
2023/03/14 07:53:54;;;;;;;10.73;3.20;;;;;;;;;;5063144;28;20447;-83
2023/03/14 07:56:20;;;;;;;14.02;3.00;;;;;;;;;;5063509;28;20434;-82
2023/03/14 07:58:47;;;;;;;6.50;2.93;;;;;;;;;;5065911;28;20747;-82
2023/03/14 08:01:13;;;;;;;9.52;3.40;;;;;;;;;;5066528;28;20924;-82
2023/03/14 08:03:39;;;;;;;13.48;3.38;;;;;;;;;;5064077;28;20777;-82
2023/03/14 08:06:06;;;;;;;12.25;3.67;;;;;;;;;;5066883;28;20913;-83
2023/03/14 08:08:32;;;;;;;8.00;3.70;;;;;;;;;;5069533;28;20420;-82
2023/03/14 08:11:04;;;;;;;8.27;3.20;;;;;;;;;;5070343;28;20434;-82
2023/03/14 08:13:30;;;;;;;9.07;3.42;;;;;;;;;;5070232;28;21024;-82
2023/03/14 08:15:57;;;;;;;8.75;3.03;;;;;;;;;;5068865;28;20603;-83
2023/03/14 08:18:23;;;;;;;11.23;3.80;;;;;;;;;;5070107;28;20924;-82
2023/03/14 08:20:51;;;;;;;5.80;3.28;;;;;;;;;;5066554;28;20943;-80
2023/03/14 08:23:17;;;;;;;10.05;3.47;;;;;;;;;;5069313;28;20455;-80
2023/03/14 08:25:43;;;;;;;5.87;3.40;;;;;;;;;;5067426;28;20463;-81
2023/03/14 08:28:12;;;;;;;10.20;3.80;;;;;;;;;;5070147;28;20416;-81
2023/03/14 08:30:38;;;;;;;9.90;4.75;;;;;;;;;;5071409;28;20431;-83
2023/03/14 08:33:05;;;;;;;7.55;3.38;;;;;;;;;;5073893;28;20430;-81
2023/03/14 08:35:31;;;;;;;11.25;4.90;;;;;;;;;;5072595;28;20429;-82
2023/03/14 08:37:57;;;;;;;11.18;4.50;;;;;;;;;;5067382;28;20447;-83
2023/03/14 08:40:24;;;;;;;10.65;3.58;;;;;;;;;;5065769;28;20425;-80
2023/03/14 08:42:50;;;;;;;7.60;3.25;;;;;;;;;;5068924;28;20931;-79
2023/03/14 08:45:18;;;;;;;5.72;2.60;;;;;;;;;;5067927;28;20429;-79
2023/03/14 08:47:45;;;;;;;6.82;2.60;;;;;;;;;;5068173;28;20435;-80
2023/03/14 08:50:12;;;;;;;3.70;2.00;;;;;;;;;;5070370;28;20789;-78
2023/03/14 08:52:40;;;;;;;2.30;0.90;;;;;;;;;;5069805;28;20419;-81
2023/03/14 08:55:07;;;;;;;4.50;0.90;;;;;;;;;;5072633;28;20482;-81
2023/03/14 08:57:34;;;;;;;5.13;1.60;;;;;;;;;;5070284;28;20432;-82
2023/03/14 09:00:00;;;;;;;4.22;1.00;;;;;;;;;;5072235;28;20470;-80
2023/03/14 09:02:28;;;;;;;5.20;1.30;;;;;;;;;;5068671;28;20427;-81
2023/03/14 09:04:55;;;;;;;6.75;1.48;;;;;;;;;;5072720;28;20443;-82
2023/03/14 09:07:21;;;;;;;5.45;1.23;;;;;;;;;;5074571;28;20411;-82
2023/03/14 09:09:48;;;;;;;5.93;1.40;;;;;;;;;;5072093;28;20435;-82
2023/03/14 09:12:14;;;;;;;6.00;1.42;;;;;;;;;;5070718;28;20431;-82
2023/03/14 09:14:41;;;;;;;3.30;1.05;;;;;;;;;;5071678;28;20431;-82
2023/03/14 09:17:07;;;;;;;7.38;1.58;;;;;;;;;;5071849;28;20409;-82
2023/03/14 09:19:35;;;;;;;6.60;1.50;;;;;;;;;;5073150;28;20434;-81
2023/03/14 09:22:01;;;;;;;5.90;1.42;;;;;;;;;;5072691;28;20866;-82
2023/03/14 09:24:28;;;;;;;5.50;1.30;;;;;;;;;;5072156;28;20428;-81
2023/03/14 09:26:55;;;;;;;3.28;0.80;;;;;;;;;;5069830;28;20434;-79
2023/03/14 09:29:21;;;;;;;5.20;0.77;;;;;;;;;;5067629;28;20424;-79
2023/03/14 09:31:48;;;;;;;2.13;0.70;;;;;;;;;;5065327;28;20424;-79
2023/03/14 09:34:14;;;;;;;1.67;0.60;;;;;;;;;;5066411;28;20431;-79
2023/03/14 09:36:44;;;;;;;2.38;0.50;;;;;;;;;;5062015;28;20429;-79
2023/03/14 09:39:10;;;;;;;2.65;0.90;;;;;;;;;;5063078;28;20464;-79
2023/03/14 09:41:38;;;;;;;2.70;0.70;;;;;;;;;;5059366;28;20467;-81
2023/03/14 09:44:06;;;;;;;2.20;0.70;;;;;;;;;;5062885;28;20559;-80
2023/03/14 09:46:34;;;;;;;1.40;0.40;;;;;;;;;;5063214;28;20519;-80
2023/03/14 09:49:00;;;;;;;1.20;0.50;;;;;;;;;;5060123;28;20836;-78
2023/03/14 09:51:27;;;;;;;1.08;0.50;;;;;;;;;;5061845;28;20438;-80
2023/03/14 09:53:54;;;;;;;1.38;0.40;;;;;;;;;;5061187;28;20414;-80
2023/03/14 09:56:22;;;;;;;2.15;0.40;;;;;;;;;;5063409;28;20423;-79
2023/03/14 09:58:51;;;;;;;2.08;0.40;;;;;;;;;;5061969;28;20844;-78
2023/03/14 10:01:20;;;;;;;0.70;0.40;;;;;;;;;;5064875;28;20431;-80
2023/03/14 10:03:47;;;;;;;2.17;0.60;;;;;;;;;;5058876;28;20898;-78
2023/03/14 10:06:14;;;;;;;1.73;0.50;;;;;;;;;;5062154;28;20425;-78
2023/03/14 10:08:41;;;;;;;4.30;0.63;;;;;;;;;;5046320;28;20849;-78
2023/03/14 10:11:12;;;;;;;3.33;0.70;;;;;;;;;;5057558;28;21140;-80
2023/03/14 10:13:47;;;;;;;1.23;0.40;;;;;;;;;;5061432;28;20894;-80
2023/03/14 10:16:14;;;;;;;1.07;0.40;;;;;;;;;;5066052;28;20503;-81
2023/03/14 10:18:45;;;;;;;2.17;0.90;;;;;;;;;;5062207;28;20485;-80
2023/03/14 10:21:18;;;;;;;1.95;0.60;;;;;;;;;;5063372;28;20435;-80
2023/03/14 10:23:46;;;;;;;2.10;0.50;;;;;;;;;;5060831;28;20425;-80
2023/03/14 10:26:15;;;;;;;3.65;0.95;;;;;;;;;;5064501;28;20516;-78
2023/03/14 10:28:44;;;;;;;2.17;0.70;;;;;;;;;;5061931;28;20424;-80
2023/03/14 10:31:10;;;;;;;4.43;0.90;;;;;;;;;;5062940;28;20437;-80
2023/03/14 10:33:38;;;;;;;3.13;0.90;;;;;;;;;;5060487;28;20422;-80
2023/03/14 10:36:06;;;;;;;4.65;0.93;;;;;;;;;;5063910;28;20774;-80
2023/03/14 10:38:33;;;;;;;5.07;1.02;;;;;;;;;;5059800;28;20433;-80
2023/03/14 10:41:00;;;;;;;3.35;1.00;;;;;;;;;;5061400;28;20427;-80
2023/03/14 10:43:28;;;;;;;2.30;0.60;;;;;;;;;;5061386;28;20428;-80
2023/03/14 10:45:57;;;;;;;3.47;1.00;;;;;;;;;;5062597;28;20433;-80
2023/03/14 10:48:24;;;;;;;7.05;1.10;;;;;;;;;;5065321;28;20412;-80
2023/03/14 10:50:55;;;;;;;4.35;1.25;;;;;;;;;;5062330;28;20427;-80
2023/03/14 10:53:23;;;;;;;3.03;1.10;;;;;;;;;;5060391;28;20419;-80
2023/03/14 10:55:50;;;;;;;5.95;1.20;;;;;;;;;;5062934;28;20444;-80
2023/03/14 10:58:23;;;;;;;6.25;1.20;;;;;;;;;;5061013;28;20510;-80
2023/03/14 11:00:54;;;;;;;5.38;1.30;;;;;;;;;;5063015;28;21270;-80
2023/03/14 11:03:22;;;;;;;5.07;1.08;;;;;;;;;;5063671;28;20432;-80
2023/03/14 11:05:52;;;;;;;3.42;1.50;;;;;;;;;;5066782;28;20902;-80
2023/03/14 11:08:22;;;;;;;5.03;1.20;;;;;;;;;;5064276;28;20916;-80
2023/03/14 11:10:50;;;;;;;8.40;1.70;;;;;;;;;;5063932;28;20435;-79
2023/03/14 11:13:17;;;;;;;9.27;1.60;;;;;;;;;;5065367;28;20430;-80
2023/03/14 11:15:50;;;;;;;7.60;2.50;;;;;;;;;;5064261;28;20437;-80
2023/03/14 11:18:34;;;;;;;9.10;1.90;;;;;;;;;;5063128;28;20427;-78
2023/03/14 11:21:03;;;;;;;7.00;1.80;;;;;;;;;;5061296;28;20424;-80
2023/03/14 11:23:33;;;;;;;9.77;1.80;;;;;;;;;;5061376;28;20488;-79
2023/03/14 11:26:06;;;;;;;9.13;2.60;;;;;;;;;;5060717;28;20426;-81
2023/03/14 11:28:36;;;;;;;7.65;2.30;;;;;;;;;;5059700;28;20432;-79
2023/03/14 11:31:06;;;;;;;11.45;1.90;;;;;;;;;;5065121;28;20435;-80
2023/03/14 11:33:37;;;;;;;11.10;2.20;;;;;;;;;;5064030;28;20420;-80
2023/03/14 11:36:06;;;;;;;11.52;2.58;;;;;;;;;;5066411;28;20438;-81
2023/03/14 11:38:36;;;;;;;10.80;2.60;;;;;;;;;;5063525;28;20456;-79
2023/03/14 11:41:03;;;;;;;7.30;2.00;;;;;;;;;;5065402;28;20430;-80
2023/03/14 11:43:30;;;;;;;14.10;2.80;;;;;;;;;;5064778;28;20445;-80
2023/03/14 11:45:59;;;;;;;12.80;2.40;;;;;;;;;;5069575;28;20460;-80
2023/03/14 11:48:33;;;;;;;11.38;2.45;;;;;;;;;;5065351;28;20423;-80
2023/03/14 11:51:02;;;;;;;8.73;3.05;;;;;;;;;;5069721;28;20490;-80
2023/03/14 11:53:35;;;;;;;14.43;3.05;;;;;;;;;;5068124;28;20795;-80
2023/03/14 11:56:02;;;;;;;11.80;2.63;;;;;;;;;;5069697;28;20428;-80
2023/03/14 11:58:30;;;;;;;12.57;3.20;;;;;;;;;;5066797;28;20495;-80
2023/03/14 12:00:57;;;;;;;13.65;3.47;;;;;;;;;;5069494;28;20433;-81
2023/03/14 12:03:29;;;;;;;14.55;3.30;;;;;;;;;;5066802;28;20440;-80
2023/03/14 12:06:03;;;;;;;12.97;3.57;;;;;;;;;;5070399;28;20433;-80
2023/03/14 12:08:39;;;;;;;16.40;3.60;;;;;;;;;;5067917;28;20425;-80
2023/03/14 12:11:09;;;;;;;16.55;3.85;;;;;;;;;;5066559;28;20465;-81
2023/03/14 12:13:37;;;;;;;23.15;4.90;;;;;;;;;;5069037;28;20417;-80
2023/03/14 12:16:05;;;;;;;15.50;4.78;;;;;;;;;;5072898;28;20435;-80
2023/03/14 12:18:33;;;;;;;15.40;3.60;;;;;;;;;;5069590;28;20423;-82
2023/03/14 12:21:01;;;;;;;15.52;4.28;;;;;;;;;;5069358;28;20415;-81
2023/03/14 12:23:29;;;;;;;15.93;4.18;;;;;;;;;;5068407;28;20434;-82
2023/03/14 12:26:09;;;;;;;15.77;3.60;;;;;;;;;;5070760;28;20436;-81
2023/03/14 12:28:35;;;;;;;13.90;3.60;;;;;;;;;;5070130;28;20425;-80
2023/03/14 12:31:16;;;;;;;18.48;4.45;;;;;;;;;;5075979;28;20976;-80
2023/03/14 12:33:42;;;;;;;15.18;2.78;;;;;;;;;;5071883;28;20419;-80
2023/03/14 12:36:19;;;;;;;18.67;3.72;;;;;;;;;;5075938;28;20425;-81
2023/03/14 12:38:50;;;;;;;11.70;3.05;;;;;;;;;;5072585;28;20424;-82
2023/03/14 12:41:21;;;;;;;16.58;2.85;;;;;;;;;;5073010;28;20421;-81
2023/03/14 12:43:48;;;;;;;12.27;2.70;;;;;;;;;;5075942;28;20424;-81
2023/03/14 12:46:22;;;;;;;12.50;2.53;;;;;;;;;;5074391;28;20427;-82
2023/03/14 12:48:49;;;;;;;11.25;3.40;;;;;;;;;;5076155;28;20426;-81
2023/03/14 12:51:17;;;;;;;12.25;2.25;;;;;;;;;;5067090;28;20489;-80
2023/03/14 12:54:02;;;;;;;9.23;3.10;;;;;;;;;;5065472;28;20429;-79
2023/03/14 12:56:37;;;;;;;9.20;2.63;;;;;;;;;;5059835;28;20441;-80
2023/03/14 12:59:11;;;;;;;12.20;3.47;;;;;;;;;;5060450;28;20425;-80
2023/03/14 13:01:37;;;;;;;8.93;2.80;;;;;;;;;;5060913;28;20424;-80
2023/03/14 13:04:08;;;;;;;8.52;2.20;;;;;;;;;;5062331;28;20418;-80
2023/03/14 13:07:01;;;;;;;12.55;3.30;;;;;;;;;;5062911;28;20432;-79
2023/03/14 13:09:58;;;;;;;9.57;2.75;;;;;;;;;;5062542;28;20867;-79
2023/03/14 13:12:30;;;;;;;11.82;3.00;;;;;;;;;;5065344;28;20508;-79
2023/03/14 13:14:58;;;;;;;12.07;3.00;;;;;;;;;;5064235;28;20482;-79
2023/03/14 13:17:28;;;;;;;13.55;3.10;;;;;;;;;;5065321;28;20522;-78
2023/03/14 13:19:56;;;;;;;14.82;3.00;;;;;;;;;;5065593;28;20507;-80
2023/03/14 13:22:25;;;;;;;10.90;2.60;;;;;;;;;;5062454;28;20793;-79
2023/03/14 13:24:51;;;;;;;12.50;2.40;;;;;;;;;;5060023;28;20437;-79
2023/03/14 13:27:19;;;;;;;9.05;2.75;;;;;;;;;;5060262;28;20418;-78
2023/03/14 13:29:45;;;;;;;9.63;2.70;;;;;;;;;;5063753;28;20420;-79
2023/03/14 13:32:17;;;;;;;7.32;3.20;;;;;;;;;;5062740;28;20415;-80
2023/03/14 13:34:43;;;;;;;11.40;4.28;;;;;;;;;;5063027;28;20432;-81
2023/03/14 13:37:15;;;;;;;13.70;3.20;;;;;;;;;;5064122;28;20416;-79
2023/03/14 13:39:44;;;;;;;8.20;2.50;;;;;;;;;;5059594;28;20432;-78
2023/03/14 13:42:14;;;;;;;8.95;2.50;;;;;;;;;;5060049;28;20952;-77
2023/03/14 13:44:40;;;;;;;4.97;2.20;;;;;;;;;;5065160;28;20434;-79
2023/03/14 13:47:12;;;;;;;8.48;2.15;;;;;;;;;;5061418;28;20931;-79
2023/03/14 13:49:38;;;;;;;6.50;1.90;;;;;;;;;;5066692;28;20487;-79
2023/03/14 13:52:21;;;;;;;7.13;2.00;;;;;;;;;;5067782;28;20419;-80
2023/03/14 13:54:53;;;;;;;6.90;2.30;;;;;;;;;;5065214;28;20442;-78
2023/03/14 13:57:19;;;;;;;9.63;2.22;;;;;;;;;;5064548;28;20419;-79
2023/03/14 13:59:58;;;;;;;6.25;1.55;;;;;;;;;;5064593;28;20816;-78
2023/03/14 14:02:25;;;;;;;8.10;1.85;;;;;;;;;;5061842;28;20425;-77
2023/03/14 14:04:51;;;;;;;9.18;2.53;;;;;;;;;;5063096;28;20628;-78
2023/03/14 14:07:19;;;;;;;10.50;2.60;;;;;;;;;;5060672;28;20428;-78
2023/03/14 14:09:47;;;;;;;8.43;2.75;;;;;;;;;;5061072;28;20420;-78
2023/03/14 14:12:17;;;;;;;10.93;3.92;;;;;;;;;;5062049;28;20418;-78
2023/03/14 14:14:46;;;;;;;12.60;3.65;;;;;;;;;;5063729;28;20439;-77
2023/03/14 14:17:14;;;;;;;8.25;2.30;;;;;;;;;;5061815;28;20418;-78
2023/03/14 14:19:41;;;;;;;11.57;3.28;;;;;;;;;;5062834;28;20428;-78
2023/03/14 14:22:09;;;;;;;13.73;4.40;;;;;;;;;;5064115;28;20407;-78
2023/03/14 14:24:36;;;;;;;12.50;2.95;;;;;;;;;;5062129;28;20419;-78
2023/03/14 14:27:09;;;;;;;9.35;2.10;;;;;;;;;;5060795;28;20419;-78
2023/03/14 14:29:37;;;;;;;7.70;2.72;;;;;;;;;;5060698;28;20419;-78
2023/03/14 14:32:10;;;;;;;7.78;2.40;;;;;;;;;;5059549;28;20433;-78
2023/03/14 14:34:42;;;;;;;11.60;2.23;;;;;;;;;;5056852;28;20489;-79
2023/03/14 14:37:18;;;;;;;7.65;2.17;;;;;;;;;;5063700;28;20416;-77
2023/03/14 14:39:45;;;;;;;11.43;2.50;;;;;;;;;;5058485;28;20925;-78
2023/03/14 14:42:14;;;;;;;9.10;2.40;;;;;;;;;;5061376;28;20491;-78